createdAt,value
2019-02-21T00:01:24.262Z,13.50
2019-02-21T00:03:52.666Z,13.07
2019-02-21T00:06:21.070Z,14.97
2019-02-21T00:08:49.505Z,13.07
2019-02-21T00:11:17.902Z,14.00
2019-02-21T00:13:46.309Z,13.87
2019-02-21T00:16:14.728Z,13.30
2019-02-21T00:18:43.139Z,12.87
2019-02-21T00:21:11.613Z,12.77
2019-02-21T00:23:40.050Z,13.23
2019-02-21T00:26:08.617Z,14.23
2019-02-21T00:28:37.537Z,13.60
2019-02-21T00:31:05.999Z,14.00
2019-02-21T00:33:34.414Z,13.70
2019-02-21T00:36:02.817Z,13.37
2019-02-21T00:38:31.246Z,13.83
2019-02-21T00:40:59.646Z,14.77
2019-02-21T00:43:28.052Z,14.57
2019-02-21T00:45:56.473Z,15.10
2019-02-21T00:48:24.898Z,14.00
2019-02-21T00:50:53.306Z,14.00
2019-02-21T00:53:21.816Z,14.47
2019-02-21T00:55:50.222Z,13.27
2019-02-21T00:58:18.613Z,14.00
2019-02-21T01:00:47.071Z,14.33
2019-02-21T01:03:15.527Z,14.53
2019-02-21T01:05:43.954Z,14.27
2019-02-21T01:08:12.654Z,14.37
2019-02-21T01:10:41.056Z,14.13
2019-02-21T01:13:09.457Z,15.10
2019-02-21T01:15:37.886Z,15.07
2019-02-21T01:18:06.294Z,14.87
2019-02-21T01:20:34.787Z,15.00
2019-02-21T01:23:03.215Z,14.50
2019-02-21T01:25:31.787Z,15.27
2019-02-21T01:28:00.902Z,14.63
2019-02-21T01:30:29.309Z,15.87
2019-02-21T01:32:57.782Z,15.20
2019-02-21T01:35:26.206Z,15.43
2019-02-21T01:37:54.709Z,15.23
2019-02-21T01:40:23.138Z,15.83
2019-02-21T01:42:51.541Z,15.50
2019-02-21T01:45:19.959Z,16.00
2019-02-21T01:47:48.386Z,16.13
2019-02-21T01:50:16.798Z,15.20
2019-02-21T01:52:45.210Z,15.67
2019-02-21T01:55:13.631Z,16.47
2019-02-21T01:57:42.035Z,16.10
2019-02-21T02:00:12.551Z,16.20
2019-02-21T02:02:40.982Z,15.27
2019-02-21T02:05:09.558Z,16.27
2019-02-21T02:07:38.629Z,16.17
2019-02-21T02:10:09.098Z,15.28
2019-02-21T02:12:37.718Z,15.00
2019-02-21T02:15:08.455Z,15.70
2019-02-21T02:17:37.173Z,15.90
2019-02-21T02:20:17.547Z,15.30
2019-02-21T02:22:45.965Z,16.07
2019-02-21T02:25:14.373Z,15.60
2019-02-21T02:27:42.818Z,15.67
2019-02-21T02:30:11.283Z,15.73
2019-02-21T02:32:39.698Z,15.77
2019-02-21T02:35:08.322Z,16.00
2019-02-21T02:37:36.731Z,16.07
2019-02-21T02:40:06.069Z,15.20
2019-02-21T02:42:34.487Z,16.43
2019-02-21T02:45:02.951Z,15.30
2019-02-21T02:47:31.446Z,15.87
2019-02-21T02:49:59.845Z,16.10
2019-02-21T02:52:28.262Z,16.07
2019-02-21T02:54:56.667Z,15.83
2019-02-21T02:57:25.094Z,16.63
2019-02-21T02:59:53.493Z,16.47
2019-02-21T03:02:21.926Z,15.40
2019-02-21T03:04:50.360Z,16.07
2019-02-21T03:07:19.029Z,15.97
2019-02-21T03:09:47.467Z,15.50
2019-02-21T03:12:15.934Z,15.43
2019-02-21T03:14:44.369Z,15.33
2019-02-21T03:17:12.770Z,16.23
2019-02-21T03:19:41.169Z,16.43
2019-02-21T03:22:09.597Z,15.30
2019-02-21T03:24:38.012Z,14.87
2019-02-21T03:27:06.417Z,15.97
2019-02-21T03:29:34.829Z,15.20
2019-02-21T03:32:03.274Z,16.37
2019-02-21T03:34:31.678Z,16.23
2019-02-21T03:37:00.212Z,15.50
2019-02-21T03:39:28.614Z,14.80
2019-02-21T03:41:57.015Z,15.03
2019-02-21T03:44:25.482Z,14.90
2019-02-21T03:46:53.908Z,15.07
2019-02-21T03:49:22.313Z,16.23
2019-02-21T03:51:50.743Z,14.90
2019-02-21T03:54:19.193Z,14.50
2019-02-21T03:56:47.598Z,14.80
2019-02-21T03:59:16.091Z,14.67
2019-02-21T04:01:44.477Z,14.40
2019-02-21T04:04:12.884Z,15.53
2019-02-21T04:06:41.314Z,15.07
2019-02-21T04:09:09.711Z,14.87
2019-02-21T04:11:38.126Z,15.13
2019-02-21T04:14:06.637Z,15.40
2019-02-21T04:16:35.053Z,15.07
2019-02-21T04:19:03.482Z,13.83
2019-02-21T04:21:31.963Z,15.00
2019-02-21T04:24:00.360Z,15.37
2019-02-21T04:26:28.846Z,15.40
2019-02-21T04:28:57.253Z,15.47
2019-02-21T04:31:25.685Z,14.77
2019-02-21T04:33:54.085Z,15.20
2019-02-21T04:36:23.671Z,14.83
2019-02-21T04:38:52.281Z,14.93
2019-02-21T04:41:20.708Z,15.63
2019-02-21T04:43:49.107Z,15.70
2019-02-21T04:46:17.534Z,15.53
2019-02-21T04:48:45.955Z,15.60
2019-02-21T04:51:14.359Z,15.13
2019-02-21T04:53:42.777Z,14.93
2019-02-21T04:56:11.209Z,14.50
2019-02-21T04:58:39.736Z,14.83
2019-02-21T05:01:08.186Z,14.97
2019-02-21T05:03:36.602Z,13.97
2019-02-21T05:06:05.025Z,14.47
2019-02-21T05:08:33.436Z,14.60
2019-02-21T05:11:01.854Z,15.77
2019-02-21T05:13:30.416Z,15.27
2019-02-21T05:15:58.869Z,15.57
2019-02-21T05:18:27.292Z,14.90
2019-02-21T05:20:55.691Z,14.27
2019-02-21T05:23:24.124Z,14.73
2019-02-21T05:25:52.521Z,15.13
2019-02-21T05:28:28.261Z,14.83
2019-02-21T05:30:58.424Z,15.87
2019-02-21T05:33:43.911Z,14.73
2019-02-21T05:36:32.301Z,14.53
2019-02-21T05:39:18.606Z,15.70
2019-02-21T05:42:00.437Z,15.10
2019-02-21T05:44:33.407Z,14.80
2019-02-21T05:47:18.781Z,15.47
2019-02-21T05:49:55.024Z,16.00
2019-02-21T05:52:25.085Z,16.10
2019-02-21T05:54:55.135Z,15.80
2019-02-21T05:57:34.474Z,16.33
2019-02-21T06:00:14.408Z,16.30
2019-02-21T06:02:53.125Z,15.57
2019-02-21T06:05:21.730Z,15.13
2019-02-21T06:08:09.882Z,16.03
2019-02-21T06:10:39.918Z,16.13
2019-02-21T06:13:18.871Z,15.53
2019-02-21T06:16:04.205Z,15.30
2019-02-21T06:18:34.277Z,15.23
2019-02-21T06:21:04.324Z,15.70
2019-02-21T06:23:39.396Z,15.57
2019-02-21T06:26:09.053Z,15.90
2019-02-21T06:28:48.094Z,17.00
2019-02-21T06:31:16.510Z,16.40
2019-02-21T06:33:44.913Z,16.90
2019-02-21T06:36:13.338Z,17.27
2019-02-21T06:38:41.746Z,15.80
2019-02-21T06:41:10.232Z,16.97
2019-02-21T06:43:38.659Z,16.37
2019-02-21T06:46:07.070Z,16.50
2019-02-21T06:48:35.510Z,17.00
2019-02-21T06:51:03.905Z,16.57
2019-02-21T06:53:32.301Z,15.33
2019-02-21T06:56:00.869Z,15.83
2019-02-21T06:58:29.259Z,16.67
2019-02-21T07:00:57.662Z,15.97
2019-02-21T07:03:26.221Z,16.20
2019-02-21T07:05:54.699Z,15.83
2019-02-21T07:08:25.078Z,15.73
2019-02-21T07:10:53.324Z,15.63
2019-02-21T07:13:26.609Z,15.80
2019-02-21T07:15:51.872Z,17.00
2019-02-21T07:18:20.346Z,16.83
2019-02-21T07:20:48.754Z,16.00
2019-02-21T07:23:17.176Z,16.30
2019-02-21T07:25:47.153Z,15.60
2019-02-21T07:28:16.117Z,16.27
2019-02-21T07:30:45.038Z,15.83
2019-02-21T07:33:13.441Z,15.57
2019-02-21T07:35:41.910Z,15.70
2019-02-21T07:38:10.309Z,15.40
2019-02-21T07:40:38.709Z,14.83
2019-02-21T07:43:07.152Z,15.47
2019-02-21T07:45:36.515Z,16.07
2019-02-21T07:48:05.058Z,15.57
2019-02-21T07:50:33.485Z,16.27
2019-02-21T07:53:02.873Z,14.87
2019-02-21T07:55:31.605Z,15.23
2019-02-21T07:58:00.005Z,15.40
2019-02-21T08:00:28.410Z,15.60
2019-02-21T08:02:57.209Z,15.17
2019-02-21T08:05:25.609Z,15.57
2019-02-21T08:07:54.023Z,15.37
2019-02-21T08:10:32.789Z,15.13
2019-02-21T08:12:53.638Z,15.10
2019-02-21T08:15:22.178Z,15.17
2019-02-21T08:17:50.981Z,15.57
2019-02-21T08:20:19.392Z,14.80
2019-02-21T08:22:47.779Z,15.43
2019-02-21T08:25:18.993Z,15.57
2019-02-21T08:27:46.340Z,14.87
2019-02-21T08:30:15.601Z,15.83
2019-02-21T08:33:07.237Z,15.63
2019-02-21T08:35:35.650Z,15.43
2019-02-21T08:38:04.091Z,15.80
2019-02-21T08:40:32.662Z,15.87
2019-02-21T08:43:03.871Z,16.10
2019-02-21T08:45:31.195Z,15.50
2019-02-21T08:47:59.634Z,16.03
2019-02-21T08:50:28.031Z,16.70
2019-02-21T08:52:56.438Z,16.33
2019-02-21T08:55:25.009Z,15.57
2019-02-21T08:57:53.414Z,14.97
2019-02-21T09:00:21.808Z,16.20
2019-02-21T09:02:50.232Z,16.27
2019-02-21T09:05:18.745Z,15.87
2019-02-21T09:07:47.149Z,16.23
2019-02-21T09:10:15.733Z,15.90
2019-02-21T09:12:48.432Z,15.73
2019-02-21T09:15:17.527Z,15.53
2019-02-21T09:17:45.930Z,15.37
2019-02-21T09:20:14.360Z,15.47
2019-02-21T09:22:42.763Z,16.17
2019-02-21T09:25:12.850Z,14.80
2019-02-21T09:27:41.297Z,15.67
2019-02-21T09:30:14.990Z,16.30
2019-02-21T09:32:43.426Z,16.00
2019-02-21T09:35:12.019Z,16.07
2019-02-21T09:37:40.412Z,15.63
2019-02-21T09:40:11.084Z,15.80
2019-02-21T09:42:39.490Z,15.70
2019-02-21T09:45:10.710Z,15.67
2019-02-21T09:47:40.009Z,16.70
2019-02-21T09:50:09.758Z,15.73
2019-02-21T09:52:38.174Z,16.13
2019-02-21T09:55:09.843Z,16.33
2019-02-21T09:57:38.237Z,17.33
2019-02-21T10:00:10.662Z,16.00
2019-02-21T10:02:39.083Z,15.70
2019-02-21T10:05:08.132Z,16.43
2019-02-21T10:07:37.221Z,16.77
2019-02-21T10:10:09.393Z,15.47
2019-02-21T10:12:38.131Z,16.73
2019-02-21T10:15:09.991Z,16.83
2019-02-21T10:17:38.399Z,16.13
2019-02-21T10:20:10.165Z,16.40
2019-02-21T10:22:38.571Z,15.87
2019-02-21T10:25:13.374Z,16.23
2019-02-21T10:27:41.815Z,17.00
2019-02-21T10:30:13.542Z,16.63
2019-02-21T10:32:42.062Z,16.47
2019-02-21T10:35:10.626Z,17.17
2019-02-21T10:37:39.046Z,16.73
2019-02-21T10:40:10.092Z,16.83
2019-02-21T10:42:38.792Z,17.60
2019-02-21T10:45:15.085Z,17.00
2019-02-21T10:47:43.485Z,17.63
2019-02-21T10:50:19.530Z,16.93
2019-02-21T10:52:48.733Z,16.27
2019-02-21T10:55:18.713Z,17.40
2019-02-21T10:57:47.288Z,16.87
2019-02-21T11:00:29.483Z,16.87
2019-02-21T11:02:58.061Z,16.87
2019-02-21T11:05:26.498Z,16.20
2019-02-21T11:07:54.923Z,16.83
2019-02-21T11:10:30.476Z,17.60
2019-02-21T11:12:58.882Z,18.00
2019-02-21T11:15:27.398Z,17.53
2019-02-21T11:17:55.803Z,17.47
2019-02-21T11:20:24.408Z,16.60
2019-02-21T11:22:52.835Z,17.90
2019-02-21T11:25:21.245Z,17.23
2019-02-21T11:27:49.722Z,16.60
2019-02-21T11:30:19.605Z,17.10
2019-02-21T11:32:48.009Z,17.80
2019-02-21T11:35:16.690Z,16.43
2019-02-21T11:37:46.996Z,16.77
2019-02-21T11:40:16.855Z,17.47
2019-02-21T11:42:45.902Z,17.33
2019-02-21T11:45:19.171Z,17.30
2019-02-21T11:47:47.565Z,17.63
2019-02-21T11:50:17.911Z,17.73
2019-02-21T11:52:46.332Z,17.77
2019-02-21T11:55:17.623Z,17.90
2019-02-21T11:57:46.044Z,18.00
2019-02-21T12:00:19.313Z,18.73
2019-02-21T12:02:47.948Z,17.80
2019-02-21T12:05:19.504Z,19.43
2019-02-21T12:07:47.398Z,20.43
2019-02-21T12:10:15.970Z,19.87
2019-02-21T12:12:44.373Z,20.07
2019-02-21T12:15:14.021Z,20.83
2019-02-21T12:17:43.245Z,19.37
2019-02-21T12:20:14.466Z,19.77
2019-02-21T12:22:42.884Z,19.27
2019-02-21T12:25:13.766Z,18.37
2019-02-21T12:27:42.165Z,18.87
2019-02-21T12:30:15.700Z,17.97
2019-02-21T12:32:44.138Z,17.07
2019-02-21T12:35:12.613Z,17.50
2019-02-21T12:37:41.108Z,17.17
2019-02-21T12:40:15.660Z,17.93
2019-02-21T12:42:44.139Z,18.17
2019-02-21T12:45:15.088Z,17.20
2019-02-21T12:47:50.753Z,18.20
2019-02-21T12:50:14.246Z,17.47
2019-02-21T12:52:42.642Z,16.87
2019-02-21T12:55:12.091Z,18.03
2019-02-21T12:57:40.512Z,18.07
2019-02-21T13:00:22.172Z,17.87
2019-02-21T13:02:50.574Z,18.33
2019-02-21T13:05:19.072Z,18.33
2019-02-21T13:07:47.501Z,17.47
2019-02-21T13:10:23.897Z,17.43
2019-02-21T13:12:52.524Z,18.50
2019-02-21T13:15:20.966Z,18.57
2019-02-21T13:17:51.050Z,17.77
2019-02-21T13:20:19.501Z,18.07
2019-02-21T13:22:47.948Z,18.40
2019-02-21T13:25:17.886Z,17.63
2019-02-21T13:27:46.286Z,18.97
2019-02-21T13:30:16.192Z,17.00
2019-02-21T13:32:44.598Z,17.73
2019-02-21T13:35:13.283Z,17.90
2019-02-21T13:37:41.820Z,18.43
2019-02-21T13:40:12.394Z,18.73
2019-02-21T13:42:40.801Z,20.10
2019-02-21T13:45:10.890Z,19.20
2019-02-21T13:47:39.432Z,18.70
2019-02-21T13:50:10.684Z,18.30
2019-02-21T13:52:39.204Z,17.63
2019-02-21T13:55:08.177Z,17.17
2019-02-21T13:57:36.669Z,17.30
2019-02-21T14:00:17.167Z,16.70
2019-02-21T14:02:45.620Z,16.47
2019-02-21T14:05:14.197Z,16.90
2019-02-21T14:07:42.633Z,17.00
2019-02-21T14:10:12.998Z,17.10
2019-02-21T14:12:41.402Z,17.90
2019-02-21T14:15:13.030Z,18.63
2019-02-21T14:17:41.654Z,20.27
2019-02-21T14:20:10.198Z,17.97
2019-02-21T14:22:38.618Z,18.93
2019-02-21T14:25:09.818Z,18.15
2019-02-21T14:27:38.209Z,18.03
2019-02-21T14:30:13.257Z,19.70
2019-02-21T14:32:42.170Z,18.97
2019-02-21T14:35:12.123Z,19.03
2019-02-21T14:37:40.535Z,18.43
2019-02-21T14:40:13.521Z,19.97
2019-02-21T14:42:42.021Z,20.30
2019-02-21T14:45:18.705Z,21.90
2019-02-21T14:47:47.126Z,21.93
2019-02-21T14:50:15.528Z,24.53
2019-02-21T14:52:43.999Z,23.47
2019-02-21T14:55:14.509Z,24.43
2019-02-21T14:57:43.548Z,24.20
2019-02-21T15:00:22.929Z,23.93
2019-02-21T15:02:51.326Z,25.13
2019-02-21T15:05:20.221Z,25.23
2019-02-21T15:07:49.761Z,24.77
2019-02-21T15:10:18.206Z,25.50
2019-02-21T15:12:46.698Z,27.17
2019-02-21T15:15:17.391Z,25.80
2019-02-21T15:17:45.795Z,26.10
2019-02-21T15:20:15.842Z,27.20
2019-02-21T15:22:44.449Z,27.17
2019-02-21T15:25:12.848Z,27.17
2019-02-21T15:27:41.461Z,26.57
2019-02-21T15:30:13.174Z,27.17
2019-02-21T15:32:41.601Z,28.37
2019-02-21T15:35:10.371Z,28.63
2019-02-21T15:37:38.922Z,27.80
2019-02-21T15:40:09.526Z,27.93
2019-02-21T15:42:37.925Z,28.80
2019-02-21T15:45:09.794Z,27.67
2019-02-21T15:47:38.262Z,28.13
2019-02-21T15:50:10.626Z,26.73
2019-02-21T15:52:39.080Z,27.97
2019-02-21T15:55:12.686Z,28.10
2019-02-21T15:57:40.278Z,26.37
2019-02-21T16:00:12.058Z,25.87
2019-02-21T16:02:40.468Z,26.40
2019-02-21T16:05:09.359Z,26.20
2019-02-21T16:07:37.813Z,26.03
2019-02-21T16:10:09.640Z,25.73
2019-02-21T16:12:38.312Z,25.93
2019-02-21T16:15:10.439Z,26.80
2019-02-21T16:17:40.196Z,25.97
2019-02-21T16:20:12.042Z,26.50
2019-02-21T16:22:40.459Z,26.23
2019-02-21T16:25:11.911Z,26.50
2019-02-21T16:27:40.314Z,26.17
2019-02-21T16:30:12.561Z,26.90
2019-02-21T16:32:40.536Z,25.40
2019-02-21T16:35:13.657Z,25.10
2019-02-21T16:37:42.175Z,25.57
2019-02-21T16:40:17.917Z,26.00
2019-02-21T16:42:46.616Z,24.77
2019-02-21T16:45:16.971Z,25.70
2019-02-21T16:47:45.397Z,25.73
2019-02-21T16:50:14.805Z,27.27
2019-02-21T16:52:43.230Z,26.00
2019-02-21T16:55:14.277Z,26.70
2019-02-21T16:57:42.942Z,26.80
2019-02-21T17:00:16.321Z,26.00
2019-02-21T17:02:44.813Z,26.70
2019-02-21T17:05:14.085Z,26.27
2019-02-21T17:07:42.667Z,26.73
2019-02-21T17:10:13.518Z,26.73
2019-02-21T17:12:41.922Z,27.00
2019-02-21T17:15:14.945Z,26.80
2019-02-21T17:17:43.540Z,27.67
2019-02-21T17:20:19.148Z,25.23
2019-02-21T17:22:47.550Z,27.37
2019-02-21T17:25:16.891Z,27.33
2019-02-21T17:27:46.050Z,26.70
2019-02-21T17:30:16.407Z,27.43
2019-02-21T17:32:44.999Z,27.00
2019-02-21T17:35:13.875Z,28.70
2019-02-21T17:37:42.287Z,27.23
2019-02-21T17:40:19.558Z,27.80
2019-02-21T17:42:47.968Z,26.57
2019-02-21T17:45:16.394Z,27.30
2019-02-21T17:47:44.840Z,29.83
2019-02-21T17:50:15.479Z,61.57
2019-02-21T17:52:43.886Z,34.50
2019-02-21T17:55:12.554Z,27.83
2019-02-21T17:57:41.042Z,28.13
2019-02-21T18:00:31.290Z,28.63
2019-02-21T18:02:59.704Z,28.57
2019-02-21T18:05:28.140Z,27.73
2019-02-21T18:07:56.550Z,28.07
2019-02-21T18:10:24.994Z,26.60
2019-02-21T18:12:53.402Z,27.07
2019-02-21T18:15:21.806Z,28.07
2019-02-21T18:17:50.262Z,28.43
2019-02-21T18:20:18.669Z,27.77
2019-02-21T18:22:47.084Z,28.37
2019-02-21T18:25:30.685Z,28.00
2019-02-21T18:27:59.139Z,25.97
2019-02-21T18:30:27.561Z,26.13
2019-02-21T18:32:56.064Z,27.63
2019-02-21T18:35:24.553Z,27.80
2019-02-21T18:37:52.953Z,26.47
2019-02-21T18:40:26.291Z,27.10
2019-02-21T18:42:54.697Z,29.20
2019-02-21T18:45:23.143Z,29.57
2019-02-21T18:47:51.728Z,28.73
2019-02-21T18:50:20.162Z,27.60
2019-02-21T18:52:48.794Z,29.17
2019-02-21T18:55:17.219Z,29.97
2019-02-21T18:57:45.689Z,30.10
2019-02-21T19:00:20.126Z,29.23
2019-02-21T19:02:48.527Z,28.10
2019-02-21T19:05:16.950Z,29.33
2019-02-21T19:07:45.396Z,29.27
2019-02-21T19:10:16.538Z,30.37
2019-02-21T19:12:44.945Z,29.33
2019-02-21T19:15:14.327Z,28.93
2019-02-21T19:17:42.970Z,30.43
2019-02-21T19:20:15.589Z,29.50
2019-02-21T19:22:44.047Z,30.57
2019-02-21T19:25:13.447Z,29.60
2019-02-21T19:27:41.856Z,28.87
2019-02-21T19:30:31.517Z,27.83
2019-02-21T19:32:59.945Z,28.57
2019-02-21T19:35:28.396Z,29.53
2019-02-21T19:37:56.849Z,29.53
2019-02-21T19:40:25.257Z,28.13
2019-02-21T19:42:53.671Z,27.23
2019-02-21T19:45:22.120Z,27.80
2019-02-21T19:47:50.533Z,28.10
2019-02-21T19:50:18.933Z,28.67
2019-02-21T19:52:47.377Z,27.17
2019-02-21T19:55:15.905Z,28.27
2019-02-21T19:57:44.585Z,28.90
2019-02-21T20:00:26.731Z,29.43
2019-02-21T20:02:55.502Z,27.20
2019-02-21T20:05:24.148Z,26.93
2019-02-21T20:07:52.690Z,28.37
2019-02-21T20:10:21.171Z,28.93
2019-02-21T20:12:49.624Z,28.20
2019-02-21T20:15:18.301Z,27.07
2019-02-21T20:17:46.708Z,27.57
2019-02-21T20:20:20.964Z,26.97
2019-02-21T20:22:49.387Z,26.20
2019-02-21T20:25:17.867Z,28.20
2019-02-21T20:27:46.315Z,26.53
2019-02-21T20:30:17.442Z,27.17
2019-02-21T20:32:45.836Z,28.30
2019-02-21T20:35:14.763Z,28.90
2019-02-21T20:37:43.240Z,28.83
2019-02-21T20:40:12.517Z,27.63
2019-02-21T20:42:41.231Z,29.43
2019-02-21T20:45:13.625Z,28.87
2019-02-21T20:47:42.073Z,30.20
2019-02-21T20:50:12.824Z,28.07
2019-02-21T20:52:41.395Z,26.73
2019-02-21T20:55:12.473Z,27.50
2019-02-21T20:57:41.072Z,26.77
2019-02-21T21:00:14.645Z,27.63
2019-02-21T21:02:43.090Z,28.37
2019-02-21T21:05:11.774Z,28.77
2019-02-21T21:07:40.177Z,29.63
2019-02-21T21:10:14.323Z,28.97
2019-02-21T21:12:42.733Z,30.03
2019-02-21T21:15:13.177Z,30.13
2019-02-21T21:17:41.802Z,31.30
2019-02-21T21:20:16.988Z,28.90
2019-02-21T21:22:44.491Z,29.20
2019-02-21T21:25:15.815Z,29.23
2019-02-21T21:27:44.314Z,28.73
2019-02-21T21:30:15.341Z,28.97
2019-02-21T21:32:43.988Z,28.17
2019-02-21T21:35:12.928Z,29.03
2019-02-21T21:37:41.328Z,29.23
2019-02-21T21:40:15.414Z,28.00
2019-02-21T21:42:43.864Z,28.20
2019-02-21T21:45:14.816Z,28.17
2019-02-21T21:47:43.251Z,29.10
2019-02-21T21:50:14.743Z,30.27
2019-02-21T21:52:43.240Z,29.93
2019-02-21T21:55:11.699Z,29.63
2019-02-21T21:57:40.099Z,30.97
2019-02-21T22:00:14.653Z,30.50
2019-02-21T22:02:43.206Z,31.90
2019-02-21T22:05:11.780Z,30.13
2019-02-21T22:07:40.202Z,31.30
2019-02-21T22:10:11.697Z,29.00
2019-02-21T22:12:40.164Z,29.83
2019-02-21T22:15:11.332Z,31.13
2019-02-21T22:17:42.101Z,28.63
2019-02-21T22:20:10.024Z,29.77
2019-02-21T22:22:38.453Z,30.43
2019-02-21T22:25:10.322Z,30.95
2019-02-21T22:27:38.761Z,31.33
2019-02-21T22:30:13.599Z,31.12
2019-02-21T22:32:42.026Z,33.67
2019-02-21T22:35:10.501Z,33.10
2019-02-21T22:37:39.151Z,34.53
2019-02-21T22:40:12.714Z,36.03
2019-02-21T22:42:41.145Z,36.10
2019-02-21T22:45:10.480Z,34.87
2019-02-21T22:47:38.890Z,36.23
2019-02-21T22:50:15.441Z,36.70
2019-02-21T22:52:43.874Z,37.23
2019-02-21T22:55:12.313Z,35.47
2019-02-21T22:57:40.764Z,37.53
2019-02-21T23:00:36.692Z,37.07
2019-02-21T23:03:08.101Z,38.33
2019-02-21T23:06:02.397Z,38.53
2019-02-21T23:08:42.894Z,37.97
2019-02-21T23:11:11.442Z,39.10
2019-02-21T23:13:39.994Z,39.13
2019-02-21T23:16:08.403Z,40.50
2019-02-21T23:18:36.973Z,41.57
2019-02-21T23:21:05.556Z,42.17
2019-02-21T23:23:33.957Z,44.10
2019-02-21T23:26:02.392Z,43.47
2019-02-21T23:28:30.806Z,45.00
2019-02-21T23:30:59.257Z,44.13
2019-02-21T23:33:28.266Z,43.90
2019-02-21T23:35:56.678Z,43.10
2019-02-21T23:38:25.082Z,46.67
2019-02-21T23:40:53.509Z,44.77
2019-02-21T23:43:21.916Z,46.73
2019-02-21T23:45:50.366Z,46.20
2019-02-21T23:48:18.951Z,45.37
2019-02-21T23:50:47.349Z,45.40
2019-02-21T23:53:15.866Z,45.93
2019-02-21T23:55:44.282Z,44.63
2019-02-21T23:58:12.690Z,45.03
